createdAt,value
2017-05-12T00:11:22.000Z,22.08
2017-05-12T00:31:22.000Z,22.02
2017-05-12T00:41:22.000Z,22
2017-05-12T00:51:22.000Z,21.97
2017-05-12T01:11:22.000Z,21.94
2017-05-12T01:31:22.000Z,21.89
2017-05-12T01:41:22.000Z,21.86
2017-05-12T01:51:22.000Z,21.84
2017-05-12T02:11:22.000Z,21.8
2017-05-12T02:31:22.000Z,21.75
2017-05-12T02:41:22.000Z,21.72
2017-05-12T02:51:22.000Z,21.7
2017-05-12T03:01:22.000Z,21.66
2017-05-12T03:11:22.000Z,21.65
2017-05-12T03:31:22.000Z,21.59
2017-05-12T03:51:22.000Z,21.56
2017-05-12T04:01:22.000Z,21.52
2017-05-12T04:11:23.000Z,21.49
2017-05-12T04:31:23.000Z,21.43
2017-05-12T04:51:23.000Z,21.4
2017-05-12T05:01:23.000Z,21.39
2017-05-12T05:11:23.000Z,21.36
2017-05-12T05:31:23.000Z,21.33
2017-05-12T05:51:23.000Z,21.32
2017-05-12T06:01:23.000Z,21.3
2017-05-12T06:11:23.000Z,21.38
2017-05-12T06:31:23.000Z,21.28
2017-05-12T06:51:23.000Z,21.26
2017-05-12T07:01:23.000Z,21.25
2017-05-12T07:11:23.000Z,21.27
2017-05-12T07:31:23.000Z,21.28
2017-05-12T07:51:23.000Z,21.27
2017-05-12T08:01:23.000Z,21.27
2017-05-12T08:11:23.000Z,21.29
2017-05-12T08:31:23.000Z,21.37
2017-05-12T08:51:23.000Z,21.42
2017-05-12T09:01:23.000Z,21.43
2017-05-12T09:11:23.000Z,21.43
2017-05-12T09:31:23.000Z,21.5
2017-05-12T09:51:23.000Z,21.81
2017-05-12T10:01:23.000Z,21.76
2017-05-12T10:11:23.000Z,21.73
2017-05-12T10:31:23.000Z,21.79
2017-05-12T10:51:23.000Z,21.98
2017-05-12T11:01:23.000Z,22.06
2017-05-12T11:11:23.000Z,22.2
2017-05-12T11:31:23.000Z,22.21
2017-05-12T11:51:23.000Z,22.63
2017-05-12T12:01:23.000Z,22.7
2017-05-12T12:11:23.000Z,22.57
2017-05-12T12:31:24.000Z,22.72
2017-05-12T12:51:24.000Z,22.64
2017-05-12T13:01:24.000Z,22.59
2017-05-12T13:11:24.000Z,22.57
2017-05-12T13:31:24.000Z,22.53
2017-05-12T13:51:24.000Z,22.55
2017-05-12T14:01:24.000Z,22.73
2017-05-12T14:11:24.000Z,22.69
2017-05-12T14:31:24.000Z,22.76
2017-05-12T14:51:24.000Z,22.75
2017-05-12T15:01:24.000Z,22.71
2017-05-12T15:11:24.000Z,22.7
2017-05-12T15:31:24.000Z,22.75
2017-05-12T15:51:24.000Z,22.78
2017-05-12T16:11:24.000Z,22.76
2017-05-12T16:21:24.000Z,22.76
2017-05-12T16:31:24.000Z,22.71
2017-05-12T16:51:24.000Z,22.68
2017-05-12T17:11:24.000Z,22.7
2017-05-12T17:21:24.000Z,22.71
2017-05-12T17:31:24.000Z,22.71
2017-05-12T17:51:24.000Z,22.7
2017-05-12T18:11:24.000Z,22.71
2017-05-12T18:21:24.000Z,22.73
2017-05-12T18:31:24.000Z,22.82
2017-05-12T18:51:24.000Z,22.81
2017-05-12T19:11:24.000Z,22.86
2017-05-12T19:31:24.000Z,22.89
2017-05-12T19:51:28.000Z,22.89
2017-05-12T20:11:26.000Z,22.89
2017-05-12T20:21:24.000Z,22.88
2017-05-12T20:31:25.000Z,22.88
2017-05-12T20:51:25.000Z,22.87
2017-05-12T21:11:25.000Z,22.85
2017-05-12T21:21:25.000Z,22.82
2017-05-12T21:31:25.000Z,22.81
2017-05-12T21:51:25.000Z,22.7
2017-05-12T22:11:25.000Z,22.55
2017-05-12T22:21:25.000Z,22.48
2017-05-12T22:31:25.000Z,22.42
2017-05-12T22:51:25.000Z,22.32
2017-05-12T23:11:25.000Z,22.23
2017-05-12T23:21:25.000Z,22.18
2017-05-12T23:31:25.000Z,22.13
2017-05-12T23:51:25.000Z,22.03
